Terminal Aerodrome Forecast
Issued by NWS Houston/Galveston, TX

Home | Current Version | Previous Version | Text Only | Print | Product List | Glossary On
Versions: 1 2 3 4 5 6 7 8 9 10 11 12 13 14 15 16 17 18 19 20 21 22 23 24 25 26 27 28 29 30 31 32 33 34
000
FTUS44 KHGX 252320
TAFGLS
TAF
KGLS 252320Z 2600/2624 19012KT P6SM BKN250
     FM260400 34015KT P6SM SCT050
     FM260600 34011KT P6SM VCSH FEW025 BKN050
     FM261100 35009KT P6SM BKN080
     FM262200 VRB04KT P6SM FEW025=

USA.gov is the U.S. government's official web portal to all federal, state and local government web resources and services.